sensor_id;sensor_type;location;lat;lon;timestamp;P1;durP1;ratioP1;P2;durP2;ratioP2
70683;SDS011;58263;48.146;11.440;2022-12-18T00:00:59;29.33;;;11.45;;
70683;SDS011;58263;48.146;11.440;2022-12-18T00:03:24;28.38;;;10.88;;
70683;SDS011;58263;48.146;11.440;2022-12-18T00:05:50;30.88;;;12.48;;
70683;SDS011;58263;48.146;11.440;2022-12-18T00:08:17;24.55;;;11.30;;
70683;SDS011;58263;48.146;11.440;2022-12-18T00:10:43;30.45;;;10.95;;
70683;SDS011;58263;48.146;11.440;2022-12-18T00:13:09;25.50;;;11.43;;
70683;SDS011;58263;48.146;11.440;2022-12-18T00:15:36;29.35;;;11.77;;
70683;SDS011;58263;48.146;11.440;2022-12-18T00:18:02;32.55;;;12.82;;
70683;SDS011;58263;48.146;11.440;2022-12-18T00:20:28;28.25;;;12.40;;
70683;SDS011;58263;48.146;11.440;2022-12-18T00:22:53;25.83;;;11.20;;
70683;SDS011;58263;48.146;11.440;2022-12-18T00:25:19;31.13;;;12.77;;
70683;SDS011;58263;48.146;11.440;2022-12-18T00:27:44;25.67;;;11.43;;
70683;SDS011;58263;48.146;11.440;2022-12-18T00:30:10;33.80;;;12.88;;
70683;SDS011;58263;48.146;11.440;2022-12-18T00:32:35;30.10;;;11.73;;
70683;SDS011;58263;48.146;11.440;2022-12-18T00:35:01;32.30;;;12.67;;
70683;SDS011;58263;48.146;11.440;2022-12-18T00:37:26;29.65;;;11.82;;
70683;SDS011;58263;48.146;11.440;2022-12-18T00:39:52;29.70;;;11.93;;
70683;SDS011;58263;48.146;11.440;2022-12-18T00:42:17;28.73;;;11.40;;
70683;SDS011;58263;48.146;11.440;2022-12-18T00:45:01;25.85;;;11.07;;
70683;SDS011;58263;48.146;11.440;2022-12-18T00:47:26;28.75;;;11.45;;
70683;SDS011;58263;48.146;11.440;2022-12-18T00:49:52;24.93;;;11.47;;
70683;SDS011;58263;48.146;11.440;2022-12-18T00:52:17;35.23;;;12.43;;
70683;SDS011;58263;48.146;11.440;2022-12-18T00:54:42;30.90;;;11.57;;
70683;SDS011;58263;48.146;11.440;2022-12-18T00:57:08;30.13;;;12.50;;
70683;SDS011;58263;48.146;11.440;2022-12-18T00:59:33;27.93;;;12.70;;
70683;SDS011;58263;48.146;11.440;2022-12-18T01:01:58;29.70;;;11.83;;
70683;SDS011;58263;48.146;11.440;2022-12-18T01:04:24;32.93;;;13.17;;
70683;SDS011;58263;48.146;11.440;2022-12-18T01:06:49;35.40;;;12.07;;
70683;SDS011;58263;48.146;11.440;2022-12-18T01:09:14;29.15;;;12.82;;
70683;SDS011;58263;48.146;11.440;2022-12-18T01:11:40;32.70;;;12.43;;
70683;SDS011;58263;48.146;11.440;2022-12-18T01:14:05;39.88;;;12.88;;
70683;SDS011;58263;48.146;11.440;2022-12-18T01:16:31;36.83;;;13.75;;
70683;SDS011;58263;48.146;11.440;2022-12-18T01:18:56;34.35;;;12.80;;
70683;SDS011;58263;48.146;11.440;2022-12-18T01:21:22;35.25;;;12.93;;
70683;SDS011;58263;48.146;11.440;2022-12-18T01:23:52;35.42;;;13.45;;
70683;SDS011;58263;48.146;11.440;2022-12-18T01:26:20;38.42;;;14.88;;
70683;SDS011;58263;48.146;11.440;2022-12-18T01:28:46;31.30;;;12.63;;
70683;SDS011;58263;48.146;11.440;2022-12-18T01:31:13;34.50;;;13.30;;
70683;SDS011;58263;48.146;11.440;2022-12-18T01:33:48;31.17;;;12.00;;
70683;SDS011;58263;48.146;11.440;2022-12-18T01:36:14;27.98;;;10.27;;
70683;SDS011;58263;48.146;11.440;2022-12-18T01:38:41;25.60;;;10.82;;
70683;SDS011;58263;48.146;11.440;2022-12-18T01:41:08;28.73;;;11.25;;
70683;SDS011;58263;48.146;11.440;2022-12-18T01:43:44;25.17;;;11.18;;
70683;SDS011;58263;48.146;11.440;2022-12-18T01:46:21;25.17;;;10.05;;
70683;SDS011;58263;48.146;11.440;2022-12-18T01:48:51;25.98;;;10.65;;
70683;SDS011;58263;48.146;11.440;2022-12-18T01:51:20;25.15;;;9.68;;
70683;SDS011;58263;48.146;11.440;2022-12-18T01:53:46;28.83;;;10.73;;
70683;SDS011;58263;48.146;11.440;2022-12-18T01:56:12;27.88;;;11.32;;
70683;SDS011;58263;48.146;11.440;2022-12-18T02:01:25;22.88;;;9.20;;
70683;SDS011;58263;48.146;11.440;2022-12-18T02:03:51;25.83;;;9.43;;
70683;SDS011;58263;48.146;11.440;2022-12-18T02:06:21;26.98;;;10.30;;
70683;SDS011;58263;48.146;11.440;2022-12-18T02:09:11;21.77;;;9.10;;
70683;SDS011;58263;48.146;11.440;2022-12-18T02:11:49;28.40;;;10.48;;
70683;SDS011;58263;48.146;11.440;2022-12-18T02:14:32;22.92;;;9.10;;
70683;SDS011;58263;48.146;11.440;2022-12-18T02:17:21;26.27;;;9.02;;
70683;SDS011;58263;48.146;11.440;2022-12-18T02:20:01;25.17;;;10.25;;
70683;SDS011;58263;48.146;11.440;2022-12-18T02:22:55;26.75;;;11.20;;
70683;SDS011;58263;48.146;11.440;2022-12-18T02:28:33;28.10;;;10.57;;
70683;SDS011;58263;48.146;11.440;2022-12-18T02:31:04;25.02;;;11.20;;
70683;SDS011;58263;48.146;11.440;2022-12-18T02:33:33;34.85;;;12.80;;
70683;SDS011;58263;48.146;11.440;2022-12-18T02:36:01;28.98;;;11.23;;
70683;SDS011;58263;48.146;11.440;2022-12-18T02:38:28;27.55;;;11.77;;
70683;SDS011;58263;48.146;11.440;2022-12-18T02:40:55;33.67;;;12.10;;
70683;SDS011;58263;48.146;11.440;2022-12-18T02:43:22;31.08;;;12.52;;
70683;SDS011;58263;48.146;11.440;2022-12-18T02:45:48;30.55;;;11.52;;
70683;SDS011;58263;48.146;11.440;2022-12-18T02:48:21;35.03;;;12.13;;
70683;SDS011;58263;48.146;11.440;2022-12-18T02:51:35;30.52;;;11.13;;
70683;SDS011;58263;48.146;11.440;2022-12-18T02:53:53;28.48;;;11.38;;
70683;SDS011;58263;48.146;11.440;2022-12-18T02:56:28;30.77;;;12.13;;
70683;SDS011;58263;48.146;11.440;2022-12-18T02:59:18;28.38;;;11.48;;
70683;SDS011;58263;48.146;11.440;2022-12-18T03:02:03;32.88;;;12.32;;
70683;SDS011;58263;48.146;11.440;2022-12-18T03:04:39;28.40;;;11.65;;
70683;SDS011;58263;48.146;11.440;2022-12-18T03:07:25;29.38;;;11.23;;
70683;SDS011;58263;48.146;11.440;2022-12-18T03:09:58;30.98;;;12.88;;
70683;SDS011;58263;48.146;11.440;2022-12-18T03:12:32;31.50;;;11.23;;
70683;SDS011;58263;48.146;11.440;2022-12-18T03:15:18;30.63;;;11.18;;
70683;SDS011;58263;48.146;11.440;2022-12-18T03:17:56;24.33;;;9.93;;
70683;SDS011;58263;48.146;11.440;2022-12-18T03:20:26;26.13;;;11.55;;
70683;SDS011;58263;48.146;11.440;2022-12-18T03:22:57;26.38;;;10.63;;
70683;SDS011;58263;48.146;11.440;2022-12-18T03:25:29;37.63;;;14.30;;
70683;SDS011;58263;48.146;11.440;2022-12-18T03:27:56;32.53;;;11.95;;
70683;SDS011;58263;48.146;11.440;2022-12-18T03:30:26;33.75;;;12.57;;
70683;SDS011;58263;48.146;11.440;2022-12-18T03:35:49;32.53;;;12.73;;
70683;SDS011;58263;48.146;11.440;2022-12-18T03:38:14;34.17;;;14.32;;
70683;SDS011;58263;48.146;11.440;2022-12-18T03:40:43;31.58;;;11.98;;
70683;SDS011;58263;48.146;11.440;2022-12-18T03:43:17;31.23;;;11.98;;
70683;SDS011;58263;48.146;11.440;2022-12-18T03:46:03;25.42;;;11.10;;
70683;SDS011;58263;48.146;11.440;2022-12-18T03:48:35;33.53;;;11.82;;
70683;SDS011;58263;48.146;11.440;2022-12-18T03:51:10;31.00;;;12.88;;
70683;SDS011;58263;48.146;11.440;2022-12-18T03:53:59;37.35;;;13.48;;
70683;SDS011;58263;48.146;11.440;2022-12-18T03:56:28;33.03;;;12.27;;
70683;SDS011;58263;48.146;11.440;2022-12-18T03:58:56;33.35;;;12.93;;
70683;SDS011;58263;48.146;11.440;2022-12-18T04:01:34;35.30;;;13.15;;
70683;SDS011;58263;48.146;11.440;2022-12-18T04:04:03;36.63;;;12.10;;
70683;SDS011;58263;48.146;11.440;2022-12-18T04:06:30;32.28;;;11.98;;
70683;SDS011;58263;48.146;11.440;2022-12-18T04:09:00;30.38;;;12.07;;
70683;SDS011;58263;48.146;11.440;2022-12-18T04:11:25;33.78;;;12.57;;
70683;SDS011;58263;48.146;11.440;2022-12-18T04:13:52;31.13;;;12.00;;
70683;SDS011;58263;48.146;11.440;2022-12-18T04:16:21;32.78;;;13.23;;
70683;SDS011;58263;48.146;11.440;2022-12-18T04:18:46;32.00;;;12.47;;
70683;SDS011;58263;48.146;11.440;2022-12-18T04:21:11;33.27;;;13.03;;
70683;SDS011;58263;48.146;11.440;2022-12-18T04:23:37;35.90;;;12.53;;
70683;SDS011;58263;48.146;11.440;2022-12-18T04:26:02;33.17;;;14.20;;
70683;SDS011;58263;48.146;11.440;2022-12-18T04:28:27;37.30;;;13.30;;
70683;SDS011;58263;48.146;11.440;2022-12-18T04:30:53;33.87;;;12.63;;
70683;SDS011;58263;48.146;11.440;2022-12-18T04:33:18;33.73;;;13.40;;
70683;SDS011;58263;48.146;11.440;2022-12-18T04:35:44;32.92;;;13.45;;
70683;SDS011;58263;48.146;11.440;2022-12-18T04:38:09;30.85;;;12.68;;
70683;SDS011;58263;48.146;11.440;2022-12-18T04:40:35;38.30;;;13.32;;
70683;SDS011;58263;48.146;11.440;2022-12-18T04:43:01;35.35;;;13.32;;
70683;SDS011;58263;48.146;11.440;2022-12-18T04:45:27;31.45;;;12.05;;
70683;SDS011;58263;48.146;11.440;2022-12-18T04:47:52;39.57;;;14.13;;
70683;SDS011;58263;48.146;11.440;2022-12-18T04:50:17;34.90;;;12.25;;
70683;SDS011;58263;48.146;11.440;2022-12-18T04:52:43;34.77;;;13.50;;
70683;SDS011;58263;48.146;11.440;2022-12-18T04:55:08;35.27;;;13.40;;
70683;SDS011;58263;48.146;11.440;2022-12-18T04:57:33;39.87;;;14.67;;
70683;SDS011;58263;48.146;11.440;2022-12-18T04:59:59;33.27;;;12.97;;
70683;SDS011;58263;48.146;11.440;2022-12-18T05:02:24;35.27;;;13.60;;
70683;SDS011;58263;48.146;11.440;2022-12-18T05:04:49;31.23;;;12.43;;
70683;SDS011;58263;48.146;11.440;2022-12-18T05:07:14;34.70;;;12.60;;
70683;SDS011;58263;48.146;11.440;2022-12-18T05:09:40;32.03;;;11.73;;
70683;SDS011;58263;48.146;11.440;2022-12-18T05:12:05;32.47;;;12.27;;
70683;SDS011;58263;48.146;11.440;2022-12-18T05:14:31;30.42;;;12.65;;
70683;SDS011;58263;48.146;11.440;2022-12-18T05:16:56;32.00;;;13.40;;
70683;SDS011;58263;48.146;11.440;2022-12-18T05:19:21;30.60;;;12.47;;
70683;SDS011;58263;48.146;11.440;2022-12-18T05:21:47;32.73;;;13.87;;
70683;SDS011;58263;48.146;11.440;2022-12-18T05:24:12;35.37;;;13.30;;
70683;SDS011;58263;48.146;11.440;2022-12-18T05:26:37;33.90;;;12.20;;
70683;SDS011;58263;48.146;11.440;2022-12-18T05:29:03;34.92;;;12.93;;
70683;SDS011;58263;48.146;11.440;2022-12-18T05:31:28;27.67;;;11.75;;
70683;SDS011;58263;48.146;11.440;2022-12-18T05:33:54;27.20;;;10.70;;
70683;SDS011;58263;48.146;11.440;2022-12-18T05:36:19;27.27;;;11.60;;
70683;SDS011;58263;48.146;11.440;2022-12-18T05:38:44;32.43;;;11.67;;
70683;SDS011;58263;48.146;11.440;2022-12-18T05:41:10;32.20;;;11.20;;
70683;SDS011;58263;48.146;11.440;2022-12-18T05:43:36;28.38;;;11.30;;
70683;SDS011;58263;48.146;11.440;2022-12-18T05:46:03;28.45;;;10.93;;
70683;SDS011;58263;48.146;11.440;2022-12-18T05:48:30;28.45;;;10.05;;
70683;SDS011;58263;48.146;11.440;2022-12-18T05:50:55;31.47;;;12.00;;
70683;SDS011;58263;48.146;11.440;2022-12-18T05:53:31;23.38;;;9.77;;
70683;SDS011;58263;48.146;11.440;2022-12-18T05:55:59;23.38;;;10.52;;
70683;SDS011;58263;48.146;11.440;2022-12-18T05:58:25;23.00;;;9.68;;
70683;SDS011;58263;48.146;11.440;2022-12-18T06:00:51;25.83;;;10.33;;
70683;SDS011;58263;48.146;11.440;2022-12-18T06:03:16;31.27;;;11.50;;
70683;SDS011;58263;48.146;11.440;2022-12-18T06:05:43;28.77;;;11.30;;
70683;SDS011;58263;48.146;11.440;2022-12-18T06:08:09;28.95;;;11.45;;
70683;SDS011;58263;48.146;11.440;2022-12-18T06:10:35;29.35;;;12.02;;
70683;SDS011;58263;48.146;11.440;2022-12-18T06:13:01;31.00;;;10.40;;
70683;SDS011;58263;48.146;11.440;2022-12-18T06:15:27;30.27;;;11.10;;
70683;SDS011;58263;48.146;11.440;2022-12-18T06:17:52;26.60;;;10.63;;
70683;SDS011;58263;48.146;11.440;2022-12-18T06:20:17;26.07;;;10.73;;
70683;SDS011;58263;48.146;11.440;2022-12-18T06:22:43;29.48;;;12.30;;
70683;SDS011;58263;48.146;11.440;2022-12-18T06:25:09;27.50;;;11.30;;
70683;SDS011;58263;48.146;11.440;2022-12-18T06:27:34;26.83;;;12.00;;
70683;SDS011;58263;48.146;11.440;2022-12-18T06:30:00;28.80;;;11.37;;
70683;SDS011;58263;48.146;11.440;2022-12-18T06:32:25;27.48;;;10.38;;
70683;SDS011;58263;48.146;11.440;2022-12-18T06:34:51;26.90;;;11.52;;
70683;SDS011;58263;48.146;11.440;2022-12-18T06:37:16;27.98;;;11.45;;
70683;SDS011;58263;48.146;11.440;2022-12-18T06:39:43;28.98;;;11.30;;
70683;SDS011;58263;48.146;11.440;2022-12-18T06:42:08;30.25;;;10.80;;
70683;SDS011;58263;48.146;11.440;2022-12-18T06:44:34;26.10;;;10.83;;
70683;SDS011;58263;48.146;11.440;2022-12-18T06:46:59;25.03;;;10.73;;
70683;SDS011;58263;48.146;11.440;2022-12-18T06:49:24;25.70;;;10.90;;
70683;SDS011;58263;48.146;11.440;2022-12-18T06:51:49;26.30;;;10.07;;
70683;SDS011;58263;48.146;11.440;2022-12-18T06:54:15;29.87;;;11.10;;
70683;SDS011;58263;48.146;11.440;2022-12-18T06:56:40;30.83;;;11.53;;
70683;SDS011;58263;48.146;11.440;2022-12-18T06:59:05;30.87;;;11.37;;
70683;SDS011;58263;48.146;11.440;2022-12-18T07:01:31;27.07;;;10.60;;
70683;SDS011;58263;48.146;11.440;2022-12-18T07:03:56;28.20;;;11.00;;
70683;SDS011;58263;48.146;11.440;2022-12-18T07:06:23;27.02;;;10.80;;
70683;SDS011;58263;48.146;11.440;2022-12-18T07:08:50;25.63;;;10.90;;
70683;SDS011;58263;48.146;11.440;2022-12-18T07:11:17;22.40;;;9.30;;
70683;SDS011;58263;48.146;11.440;2022-12-18T07:13:43;26.42;;;10.32;;
70683;SDS011;58263;48.146;11.440;2022-12-18T07:16:11;25.45;;;10.35;;
70683;SDS011;58263;48.146;11.440;2022-12-18T07:18:38;28.15;;;11.32;;
70683;SDS011;58263;48.146;11.440;2022-12-18T07:21:22;23.67;;;10.50;;
70683;SDS011;58263;48.146;11.440;2022-12-18T07:23:48;24.42;;;10.65;;
70683;SDS011;58263;48.146;11.440;2022-12-18T07:26:14;27.27;;;11.32;;
70683;SDS011;58263;48.146;11.440;2022-12-18T07:28:41;27.67;;;10.68;;
70683;SDS011;58263;48.146;11.440;2022-12-18T07:31:11;28.02;;;11.82;;
70683;SDS011;58263;48.146;11.440;2022-12-18T07:33:38;30.00;;;11.05;;
70683;SDS011;58263;48.146;11.440;2022-12-18T07:36:04;26.77;;;11.05;;
70683;SDS011;58263;48.146;11.440;2022-12-18T07:38:31;26.70;;;9.82;;
70683;SDS011;58263;48.146;11.440;2022-12-18T07:41:01;27.70;;;11.20;;
70683;SDS011;58263;48.146;11.440;2022-12-18T07:43:31;26.02;;;11.05;;
70683;SDS011;58263;48.146;11.440;2022-12-18T07:45:56;27.23;;;11.25;;
70683;SDS011;58263;48.146;11.440;2022-12-18T07:48:21;28.30;;;10.83;;
70683;SDS011;58263;48.146;11.440;2022-12-18T07:50:47;29.17;;;10.68;;
70683;SDS011;58263;48.146;11.440;2022-12-18T07:53:12;26.38;;;9.32;;
70683;SDS011;58263;48.146;11.440;2022-12-18T07:55:39;29.20;;;10.25;;
70683;SDS011;58263;48.146;11.440;2022-12-18T07:58:06;26.65;;;10.82;;
70683;SDS011;58263;48.146;11.440;2022-12-18T08:00:32;25.83;;;10.88;;
70683;SDS011;58263;48.146;11.440;2022-12-18T08:02:57;24.83;;;10.03;;
70683;SDS011;58263;48.146;11.440;2022-12-18T08:05:22;25.15;;;10.00;;
70683;SDS011;58263;48.146;11.440;2022-12-18T08:07:48;26.77;;;9.85;;
70683;SDS011;58263;48.146;11.440;2022-12-18T08:10:13;29.88;;;11.18;;
70683;SDS011;58263;48.146;11.440;2022-12-18T08:12:39;24.40;;;10.17;;
70683;SDS011;58263;48.146;11.440;2022-12-18T08:15:04;26.13;;;10.95;;
70683;SDS011;58263;48.146;11.440;2022-12-18T08:17:30;25.23;;;10.38;;
70683;SDS011;58263;48.146;11.440;2022-12-18T08:19:55;26.03;;;10.60;;
70683;SDS011;58263;48.146;11.440;2022-12-18T08:22:21;25.47;;;10.33;;
70683;SDS011;58263;48.146;11.440;2022-12-18T08:24:46;29.30;;;11.00;;
70683;SDS011;58263;48.146;11.440;2022-12-18T08:27:11;28.35;;;10.93;;
70683;SDS011;58263;48.146;11.440;2022-12-18T08:29:37;25.17;;;10.35;;
70683;SDS011;58263;48.146;11.440;2022-12-18T08:32:03;26.00;;;10.73;;
70683;SDS011;58263;48.146;11.440;2022-12-18T08:34:28;27.13;;;9.85;;
70683;SDS011;58263;48.146;11.440;2022-12-18T08:36:53;30.33;;;10.67;;
70683;SDS011;58263;48.146;11.440;2022-12-18T08:39:19;25.30;;;10.57;;
70683;SDS011;58263;48.146;11.440;2022-12-18T08:41:44;26.33;;;9.93;;
70683;SDS011;58263;48.146;11.440;2022-12-18T08:44:29;29.00;;;11.68;;
70683;SDS011;58263;48.146;11.440;2022-12-18T08:47:05;24.80;;;9.55;;
70683;SDS011;58263;48.146;11.440;2022-12-18T08:49:31;29.35;;;11.43;;
70683;SDS011;58263;48.146;11.440;2022-12-18T08:51:57;25.08;;;11.27;;
70683;SDS011;58263;48.146;11.440;2022-12-18T08:54:23;27.65;;;11.20;;
70683;SDS011;58263;48.146;11.440;2022-12-18T08:56:49;28.50;;;11.25;;
70683;SDS011;58263;48.146;11.440;2022-12-18T08:59:16;26.90;;;10.07;;
70683;SDS011;58263;48.146;11.440;2022-12-18T09:01:41;28.80;;;12.38;;
70683;SDS011;58263;48.146;11.440;2022-12-18T09:04:07;32.73;;;12.20;;
70683;SDS011;58263;48.146;11.440;2022-12-18T09:06:34;29.33;;;12.35;;
70683;SDS011;58263;48.146;11.440;2022-12-18T09:09:00;25.00;;;10.52;;
70683;SDS011;58263;48.146;11.440;2022-12-18T09:11:26;29.77;;;11.00;;
70683;SDS011;58263;48.146;11.440;2022-12-18T09:13:52;26.67;;;10.75;;
70683;SDS011;58263;48.146;11.440;2022-12-18T09:16:19;24.75;;;10.23;;
70683;SDS011;58263;48.146;11.440;2022-12-18T09:18:45;26.98;;;10.48;;
70683;SDS011;58263;48.146;11.440;2022-12-18T09:21:11;25.63;;;10.48;;
70683;SDS011;58263;48.146;11.440;2022-12-18T09:23:38;23.55;;;8.88;;
70683;SDS011;58263;48.146;11.440;2022-12-18T09:26:04;25.40;;;11.40;;
70683;SDS011;58263;48.146;11.440;2022-12-18T09:28:29;21.15;;;8.70;;
70683;SDS011;58263;48.146;11.440;2022-12-18T09:30:55;25.33;;;11.90;;
70683;SDS011;58263;48.146;11.440;2022-12-18T09:33:20;26.00;;;10.53;;
70683;SDS011;58263;48.146;11.440;2022-12-18T09:35:45;28.00;;;10.77;;
70683;SDS011;58263;48.146;11.440;2022-12-18T09:38:15;21.88;;;9.73;;
70683;SDS011;58263;48.146;11.440;2022-12-18T09:40:55;27.55;;;10.93;;
70683;SDS011;58263;48.146;11.440;2022-12-18T09:43:26;23.88;;;10.05;;
70683;SDS011;58263;48.146;11.440;2022-12-18T09:46:01;24.63;;;10.65;;
70683;SDS011;58263;48.146;11.440;2022-12-18T09:48:32;20.95;;;9.15;;
70683;SDS011;58263;48.146;11.440;2022-12-18T09:51:05;24.90;;;10.20;;
70683;SDS011;58263;48.146;11.440;2022-12-18T09:53:38;25.45;;;11.05;;
70683;SDS011;58263;48.146;11.440;2022-12-18T09:56:06;26.50;;;10.27;;
70683;SDS011;58263;48.146;11.440;2022-12-18T09:58:48;27.27;;;9.80;;
70683;SDS011;58263;48.146;11.440;2022-12-18T10:01:22;27.77;;;11.10;;
70683;SDS011;58263;48.146;11.440;2022-12-18T10:03:48;20.60;;;9.13;;
70683;SDS011;58263;48.146;11.440;2022-12-18T10:11:34;25.98;;;10.63;;
70683;SDS011;58263;48.146;11.440;2022-12-18T10:14:14;26.95;;;11.02;;
70683;SDS011;58263;48.146;11.440;2022-12-18T10:19:51;25.92;;;9.75;;
70683;SDS011;58263;48.146;11.440;2022-12-18T10:25:05;25.95;;;11.57;;
70683;SDS011;58263;48.146;11.440;2022-12-18T10:27:40;26.02;;;9.75;;
70683;SDS011;58263;48.146;11.440;2022-12-18T10:30:13;26.60;;;10.98;;
70683;SDS011;58263;48.146;11.440;2022-12-18T10:32:40;26.33;;;10.38;;
70683;SDS011;58263;48.146;11.440;2022-12-18T10:35:16;26.45;;;10.88;;
70683;SDS011;58263;48.146;11.440;2022-12-18T10:40:49;27.17;;;11.25;;
70683;SDS011;58263;48.146;11.440;2022-12-18T10:43:35;27.05;;;10.27;;
70683;SDS011;58263;48.146;11.440;2022-12-18T10:48:34;28.65;;;10.98;;
70683;SDS011;58263;48.146;11.440;2022-12-18T10:51:05;25.42;;;10.10;;
70683;SDS011;58263;48.146;11.440;2022-12-18T10:53:31;22.02;;;8.73;;
70683;SDS011;58263;48.146;11.440;2022-12-18T10:56:03;19.42;;;9.35;;
70683;SDS011;58263;48.146;11.440;2022-12-18T10:58:32;25.48;;;10.50;;
70683;SDS011;58263;48.146;11.440;2022-12-18T11:01:32;25.65;;;10.60;;
70683;SDS011;58263;48.146;11.440;2022-12-18T11:06:21;23.55;;;10.43;;
70683;SDS011;58263;48.146;11.440;2022-12-18T11:08:59;23.83;;;10.38;;
70683;SDS011;58263;48.146;11.440;2022-12-18T11:11:30;28.05;;;11.13;;
70683;SDS011;58263;48.146;11.440;2022-12-18T11:16:22;26.77;;;10.70;;
70683;SDS011;58263;48.146;11.440;2022-12-18T11:18:48;24.77;;;11.05;;
70683;SDS011;58263;48.146;11.440;2022-12-18T11:21:14;26.48;;;10.13;;
70683;SDS011;58263;48.146;11.440;2022-12-18T11:23:52;24.63;;;10.05;;
70683;SDS011;58263;48.146;11.440;2022-12-18T11:26:18;23.05;;;10.18;;
70683;SDS011;58263;48.146;11.440;2022-12-18T11:28:54;27.33;;;10.73;;
70683;SDS011;58263;48.146;11.440;2022-12-18T11:31:34;26.13;;;10.27;;
70683;SDS011;58263;48.146;11.440;2022-12-18T11:36:54;25.45;;;10.75;;
70683;SDS011;58263;48.146;11.440;2022-12-18T11:42:19;25.95;;;10.30;;
70683;SDS011;58263;48.146;11.440;2022-12-18T11:47:41;31.52;;;11.30;;
70683;SDS011;58263;48.146;11.440;2022-12-18T11:50:16;25.17;;;10.27;;
70683;SDS011;58263;48.146;11.440;2022-12-18T11:52:47;25.05;;;10.90;;
70683;SDS011;58263;48.146;11.440;2022-12-18T11:55:13;23.67;;;10.25;;
70683;SDS011;58263;48.146;11.440;2022-12-18T11:57:44;27.05;;;10.73;;
70683;SDS011;58263;48.146;11.440;2022-12-18T12:00:20;24.40;;;10.80;;
70683;SDS011;58263;48.146;11.440;2022-12-18T12:08:47;23.42;;;10.23;;
70683;SDS011;58263;48.146;11.440;2022-12-18T12:11:30;26.23;;;10.80;;
70683;SDS011;58263;48.146;11.440;2022-12-18T12:16:51;28.23;;;11.23;;
70683;SDS011;58263;48.146;11.440;2022-12-18T12:22:39;30.10;;;11.70;;
70683;SDS011;58263;48.146;11.440;2022-12-18T12:25:37;24.58;;;10.95;;
70683;SDS011;58263;48.146;11.440;2022-12-18T12:36:41;26.38;;;10.90;;
70683;SDS011;58263;48.146;11.440;2022-12-18T12:39:17;22.55;;;9.55;;
70683;SDS011;58263;48.146;11.440;2022-12-18T12:41:45;20.40;;;10.18;;
70683;SDS011;58263;48.146;11.440;2022-12-18T12:44:38;22.17;;;10.07;;
70683;SDS011;58263;48.146;11.440;2022-12-18T12:47:17;22.23;;;9.90;;
70683;SDS011;58263;48.146;11.440;2022-12-18T12:49:51;23.05;;;10.48;;
70683;SDS011;58263;48.146;11.440;2022-12-18T12:54:53;28.73;;;10.63;;
70683;SDS011;58263;48.146;11.440;2022-12-18T12:57:38;24.90;;;10.18;;
70683;SDS011;58263;48.146;11.440;2022-12-18T13:00:12;26.77;;;11.18;;
70683;SDS011;58263;48.146;11.440;2022-12-18T13:08:03;24.60;;;9.50;;
70683;SDS011;58263;48.146;11.440;2022-12-18T13:15:23;25.35;;;10.85;;
70683;SDS011;58263;48.146;11.440;2022-12-18T13:18:04;24.27;;;10.23;;
70683;SDS011;58263;48.146;11.440;2022-12-18T13:20:38;26.00;;;10.32;;
70683;SDS011;58263;48.146;11.440;2022-12-18T13:31:11;24.65;;;10.10;;
70683;SDS011;58263;48.146;11.440;2022-12-18T13:33:38;23.63;;;10.05;;
70683;SDS011;58263;48.146;11.440;2022-12-18T13:38:38;23.80;;;9.82;;
70683;SDS011;58263;48.146;11.440;2022-12-18T13:43:43;25.42;;;9.88;;
70683;SDS011;58263;48.146;11.440;2022-12-18T13:48:51;26.15;;;10.05;;
70683;SDS011;58263;48.146;11.440;2022-12-18T13:51:20;21.10;;;8.73;;
70683;SDS011;58263;48.146;11.440;2022-12-18T13:54:00;23.35;;;10.27;;
70683;SDS011;58263;48.146;11.440;2022-12-18T13:56:29;24.27;;;10.25;;
70683;SDS011;58263;48.146;11.440;2022-12-18T13:59:03;21.13;;;9.20;;
70683;SDS011;58263;48.146;11.440;2022-12-18T14:01:54;24.98;;;10.60;;
70683;SDS011;58263;48.146;11.440;2022-12-18T14:04:25;22.63;;;9.18;;
70683;SDS011;58263;48.146;11.440;2022-12-18T14:07:30;23.05;;;9.50;;
70683;SDS011;58263;48.146;11.440;2022-12-18T14:09:56;20.48;;;9.05;;
70683;SDS011;58263;48.146;11.440;2022-12-18T14:12:25;21.92;;;9.93;;
70683;SDS011;58263;48.146;11.440;2022-12-18T14:20:27;30.92;;;9.85;;
70683;SDS011;58263;48.146;11.440;2022-12-18T14:22:54;21.83;;;9.30;;
70683;SDS011;58263;48.146;11.440;2022-12-18T14:25:24;25.83;;;11.48;;
70683;SDS011;58263;48.146;11.440;2022-12-18T14:33:09;20.43;;;8.50;;
70683;SDS011;58263;48.146;11.440;2022-12-18T14:35:41;20.33;;;9.07;;
70683;SDS011;58263;48.146;11.440;2022-12-18T14:38:24;28.10;;;10.25;;
70683;SDS011;58263;48.146;11.440;2022-12-18T14:43:49;20.63;;;9.10;;
70683;SDS011;58263;48.146;11.440;2022-12-18T14:46:35;25.15;;;9.30;;
70683;SDS011;58263;48.146;11.440;2022-12-18T14:49:04;20.85;;;8.30;;
70683;SDS011;58263;48.146;11.440;2022-12-18T14:51:46;22.80;;;9.05;;
70683;SDS011;58263;48.146;11.440;2022-12-18T14:54:15;24.05;;;9.57;;
70683;SDS011;58263;48.146;11.440;2022-12-18T14:56:44;20.63;;;9.35;;
70683;SDS011;58263;48.146;11.440;2022-12-18T14:59:15;25.27;;;10.38;;
70683;SDS011;58263;48.146;11.440;2022-12-18T15:01:45;22.45;;;8.60;;
70683;SDS011;58263;48.146;11.440;2022-12-18T15:04:31;22.42;;;9.75;;
70683;SDS011;58263;48.146;11.440;2022-12-18T15:07:04;21.80;;;8.82;;
70683;SDS011;58263;48.146;11.440;2022-12-18T15:10:01;23.50;;;8.68;;
70683;SDS011;58263;48.146;11.440;2022-12-18T15:12:47;26.38;;;9.02;;
70683;SDS011;58263;48.146;11.440;2022-12-18T15:18:20;23.63;;;9.60;;
70683;SDS011;58263;48.146;11.440;2022-12-18T15:20:52;20.77;;;9.27;;
70683;SDS011;58263;48.146;11.440;2022-12-18T15:25:49;24.33;;;9.57;;
70683;SDS011;58263;48.146;11.440;2022-12-18T15:28:23;24.20;;;9.65;;
70683;SDS011;58263;48.146;11.440;2022-12-18T15:33:45;26.58;;;9.70;;
70683;SDS011;58263;48.146;11.440;2022-12-18T15:36:32;24.83;;;9.32;;
70683;SDS011;58263;48.146;11.440;2022-12-18T15:39:01;21.80;;;9.93;;
70683;SDS011;58263;48.146;11.440;2022-12-18T15:41:27;29.98;;;10.77;;
70683;SDS011;58263;48.146;11.440;2022-12-18T15:43:53;20.90;;;10.13;;
70683;SDS011;58263;48.146;11.440;2022-12-18T15:46:19;26.73;;;10.70;;
70683;SDS011;58263;48.146;11.440;2022-12-18T15:48:47;27.42;;;10.85;;
70683;SDS011;58263;48.146;11.440;2022-12-18T15:51:15;29.17;;;11.57;;
70683;SDS011;58263;48.146;11.440;2022-12-18T15:53:42;26.27;;;11.25;;
70683;SDS011;58263;48.146;11.440;2022-12-18T15:56:11;30.48;;;11.90;;
70683;SDS011;58263;48.146;11.440;2022-12-18T15:58:56;30.15;;;11.90;;
70683;SDS011;58263;48.146;11.440;2022-12-18T16:01:23;26.52;;;11.40;;
70683;SDS011;58263;48.146;11.440;2022-12-18T16:03:50;26.27;;;10.33;;
70683;SDS011;58263;48.146;11.440;2022-12-18T16:06:15;28.30;;;11.97;;
70683;SDS011;58263;48.146;11.440;2022-12-18T16:08:41;32.42;;;11.65;;
70683;SDS011;58263;48.146;11.440;2022-12-18T16:11:08;29.87;;;10.93;;
70683;SDS011;58263;48.146;11.440;2022-12-18T16:16:41;30.98;;;11.82;;
70683;SDS011;58263;48.146;11.440;2022-12-18T16:19:06;30.30;;;11.45;;